Terminal Aerodrome Forecast
Issued by NWS

Home | Current Version | Previous Version | Graphics & Text | Print | Product List | Glossary On
Versions: 1 2 3 4 5 6 7 8 9 10 11 12 13 14 15 16 17 18 19 20 21 22 23 24
000
FTUS43 KABR 280800 AAA
TAFMBG
TAF AMD
KMBG 280805Z 2808/2906 11006KT 5SM BR SKC
      TEMPO 2809/2813 2SM BR
     FM281300 15013KT P6SM SKC
     FM281800 16017G25KT P6SM BKN250
     FM290200 33026G36KT P6SM -SHRA SCT050 BKN070 OVC090
      TEMPO 2902/2906 33035G50KT=

USA.gov is the U.S. government's official web portal to all federal, state and local government web resources and services.